Kezdőlap
METAR-TAF:

METAR-TAF

Repülőterek :

Red Oak Municipal Airport

Red Oak, Iowa, Amerikai Egyesült Államok

földrajzi szélesség: 41-01N, földrajzi hosszúság: 095-16W, magasság: 318 m

Jelenlegi meteorológiai megfigyelések

A jelentés 11 perccel ezelõtt készült, 02:55 UTC
Dél-délnyugati szél 9 kt
Hőmérséklet -3°C
Páratartalom 58%
Légköri nyomás 1019 hPa
Látótávolság: 16.1 km
Szórványos felhőzet 18000 lábon
Szórványos felhőzet 20000 lábon
Szórványos felhőzet 26000 lábon

METAR: KRDK 270255Z AUTO 20009KT 10SM SCT180 SCT200 SCT260 M03/M10 A3010 RMK AO2

Idő: 21:06 (03:06 UTC)


TAF: hiányzik

Meteorológiai megfigyelések és előrejelzések több, mint 4000 repülőtéren (METAR és TAF jelentéseket).

A térképen piros és sárga pontok jelzik az elérhető meteorológiai állomásokat.

Mozgassa az egeret a pont fölött, hogy megjelenjen az állomás neve.

Azután kattintson az időjárási megfigyelések és előrejelzések megtekintéséhez.

A térkép megváltoztatása: kattintson a fekete keresztel jelölt zöld gombra ráközelítéshez, a vonallal jelölt zöld gombra távolításhoz, vagy a zöld nyilakra a szomszédos térképek eléréséhez.


METAR-TAF: